Time;durP1;ratioP1;P1;durP2;ratioP2;P2;SDS_P1;SDS_P2;PMS_P1;PMS_P2;Temp;Humidity;BMP_temperature;BMP_pressure;BME280_temperature;BME280_humidity;BME280_pressure;Samples;Min_cycle;Max_cycle;Signal;HPM_P1;HPM_P2
2021/08/27 00:00:25;;;;;;;;;;;;;;;17.49;64.11;100585.13;4970854;28;100852;-74
2021/08/27 00:02:53;;;;;;;;;;;;;;;17.74;63.30;100581.69;4971872;28;97249;-75
2021/08/27 00:05:19;;;;;;;;;;;;;;;17.63;63.22;100589.59;4974016;28;96796;-74
2021/08/27 00:07:45;;;;;;;;;;;;;;;17.84;62.46;100581.94;4971681;28;99614;-75
2021/08/27 00:10:12;;;;;;;;;;;;;;;17.94;62.28;100583.00;4972660;28;99367;-74
2021/08/27 00:12:39;;;;;;;;;;;;;;;17.62;63.00;100585.19;4974236;28;97158;-74
2021/08/27 00:15:06;;;;;;;;;;;;;;;18.11;61.75;100585.41;4972734;28;96810;-74
2021/08/27 00:17:33;;;;;;;;;;;;;;;18.06;61.53;100582.16;4972330;28;99601;-75
2021/08/27 00:20:00;;;;;;;;;;;;;;;18.01;61.61;100580.78;4966930;28;98841;-74
2021/08/27 00:22:27;;;;;;;;;;;;;;;17.89;61.80;100577.13;4973437;28;96910;-75
2021/08/27 00:24:54;;;;;;;;;;;;;;;17.77;62.35;100580.66;4975291;28;97043;-74
2021/08/27 00:27:20;;;;;;;;;;;;;;;17.92;61.81;100569.75;4971514;28;100374;-74
2021/08/27 00:29:46;;;;;;;;;;;;;;;18.06;61.45;100575.97;4973771;28;99169;-74
2021/08/27 00:32:12;;;;;;;;;;;;;;;18.21;61.30;100572.22;4972899;28;96799;-74
2021/08/27 00:34:39;;;;;;;;;;;;;;;18.27;60.92;100569.13;4969332;28;97218;-75
2021/08/27 00:37:06;;;;;;;;;;;;;;;18.20;60.80;100567.84;4972248;28;99029;-75
2021/08/27 00:39:33;;;;;;;;;;;;;;;17.82;61.90;100568.69;4972903;28;97705;-74
2021/08/27 00:41:59;;;;;;;;;;;;;;;18.13;61.65;100566.56;4975430;28;96797;-74
2021/08/27 00:44:25;;;;;;;;;;;;;;;18.06;61.80;100565.25;4974018;28;96776;-75
2021/08/27 00:46:52;;;;;;;;;;;;;;;17.77;63.12;100564.59;4976856;28;97957;-75
2021/08/27 00:49:18;;;;;;;;;;;;;;;18.14;61.99;100560.25;4970710;28;99274;-74
2021/08/27 00:51:45;;;;;;;;;;;;;;;18.04;62.26;100556.50;4975189;28;96702;-74
2021/08/27 00:54:13;;;;;;;;;;;;;;;18.06;62.21;100565.25;4969978;28;98428;-75
2021/08/27 00:56:39;;;;;;;;;;;;;;;17.77;63.08;100561.94;4973889;28;98910;-75
2021/08/27 00:59:05;;;;;;;;;;;;;;;17.67;63.48;100561.69;4971067;28;98784;-75
2021/08/27 01:01:31;;;;;;;;;;;;;;;17.43;64.57;100563.31;4971967;28;96851;-75
2021/08/27 01:03:58;;;;;;;;;;;;;;;17.57;64.44;100554.38;4972082;28;97337;-73
2021/08/27 01:06:27;;;;;;;;;;;;;;;17.77;63.72;100559.25;4971935;28;98766;-74
2021/08/27 01:08:55;;;;;;;;;;;;;;;18.14;62.48;100561.09;4968508;28;98933;-74
2021/08/27 01:11:27;;;;;;;;;;;;;;;17.66;63.65;100559.97;4971834;28;97328;-74
2021/08/27 01:13:55;;;;;;;;;;;;;;;17.80;63.10;100557.22;4974510;28;97010;-74
2021/08/27 01:16:24;;;;;;;;;;;;;;;17.85;62.76;100560.44;4972502;28;99332;-74
2021/08/27 01:18:52;;;;;;;;;;;;;;;17.77;63.06;100561.94;4970663;28;98893;-74
2021/08/27 01:21:39;;;;;;;;;;;;;;;18.03;62.84;100562.81;4971759;28;96898;-74
2021/08/27 01:24:07;;;;;;;;;;;;;;;18.25;61.87;100563.88;4973035;28;96822;-74
2021/08/27 01:26:37;;;;;;;;;;;;;;;18.33;61.63;100558.84;4967429;28;98959;-74
2021/08/27 01:29:04;;;;;;;;;;;;;;;17.82;62.65;100562.47;4970483;28;98853;-74
2021/08/27 01:31:34;;;;;;;;;;;;;;;18.06;62.28;100558.09;4971794;28;96843;-74
2021/08/27 01:34:06;;;;;;;;;;;;;;;18.12;61.73;100562.16;4971223;28;96869;-74
2021/08/27 01:36:35;;;;;;;;;;;;;;;17.85;62.71;100568.44;4971775;28;98855;-74
2021/08/27 01:39:02;;;;;;;;;;;;;;;18.17;61.69;100565.41;4970417;28;99180;-74
2021/08/27 01:41:31;;;;;;;;;;;;;;;18.13;62.03;100564.75;4973805;28;96844;-74
2021/08/27 01:43:58;;;;;;;;;;;;;;;17.90;62.61;100563.66;4971432;28;98611;-74
2021/08/27 01:46:24;;;;;;;;;;;;;;;18.18;62.24;100556.41;4971885;28;99272;-74
2021/08/27 01:48:51;;;;;;;;;;;;;;;17.88;62.82;100570.06;4972010;28;98044;-74
2021/08/27 01:51:17;;;;;;;;;;;;;;;18.09;62.86;100567.75;4969248;28;97112;-74
2021/08/27 01:53:46;;;;;;;;;;;;;;;17.89;62.18;100569.13;4958976;28;97055;-74
2021/08/27 01:56:12;;;;;;;;;;;;;;;17.85;63.47;100563.09;4969032;28;98936;-74
2021/08/27 01:58:39;;;;;;;;;;;;;;;18.08;62.51;100566.88;4971549;28;99430;-74
2021/08/27 02:01:06;;;;;;;;;;;;;;;18.34;61.91;100565.06;4970175;28;96903;-74
2021/08/27 02:03:33;;;;;;;;;;;;;;;18.38;61.48;100561.19;4970864;28;98406;-74
2021/08/27 02:06:01;;;;;;;;;;;;;;;17.60;63.22;100555.00;4971242;28;99236;-74
2021/08/27 02:08:28;;;;;;;;;;;;;;;18.15;62.44;100551.28;4969062;28;98864;-74
2021/08/27 02:10:57;;;;;;;;;;;;;;;18.37;61.55;100555.97;4972969;28;98054;-74
2021/08/27 02:13:23;;;;;;;;;;;;;;;18.35;61.63;100553.41;4971536;28;96865;-74
2021/08/27 02:15:50;;;;;;;;;;;;;;;18.41;61.20;100558.31;4969751;28;99339;-74
2021/08/27 02:18:16;;;;;;;;;;;;;;;18.65;60.58;100556.59;4968638;28;99056;-74
2021/08/27 02:20:42;;;;;;;;;;;;;;;18.36;61.18;100555.13;4972074;28;98519;-74
2021/08/27 02:23:10;;;;;;;;;;;;;;;18.35;61.58;100552.53;4971630;28;97120;-74
2021/08/27 02:25:37;;;;;;;;;;;;;;;18.26;61.70;100543.34;4972610;28;99277;-74
2021/08/27 02:28:05;;;;;;;;;;;;;;;18.36;61.63;100548.91;4968674;28;99205;-74
2021/08/27 02:30:32;;;;;;;;;;;;;;;18.13;61.82;100547.84;4972839;28;96761;-74
2021/08/27 02:32:59;;;;;;;;;;;;;;;18.50;60.86;100546.13;4969029;28;98912;-74
2021/08/27 02:35:26;;;;;;;;;;;;;;;18.44;61.11;100543.88;4971588;28;98954;-74
2021/08/27 02:37:53;;;;;;;;;;;;;;;18.40;61.58;100539.69;4971356;28;98842;-74
2021/08/27 02:40:19;;;;;;;;;;;;;;;18.57;61.23;100539.38;4970099;28;96963;-74
2021/08/27 02:42:45;;;;;;;;;;;;;;;18.52;60.88;100542.34;4972675;28;97052;-74
2021/08/27 02:45:13;;;;;;;;;;;;;;;18.44;61.44;100539.38;4971682;28;99035;-74
2021/08/27 02:47:39;;;;;;;;;;;;;;;18.55;61.28;100544.84;4971986;28;98757;-74
2021/08/27 02:50:06;;;;;;;;;;;;;;;18.39;61.36;100533.47;4971729;28;96776;-75
2021/08/27 02:52:42;;;;;;;;;;;;;;;18.55;61.15;100539.50;4968448;28;98748;-74
2021/08/27 02:55:11;;;;;;;;;;;;;;;18.66;61.13;100530.69;4972833;28;98968;-74
2021/08/27 02:57:41;;;;;;;;;;;;;;;18.62;61.08;100532.75;4968449;28;99099;-74
2021/08/27 03:00:08;;;;;;;;;;;;;;;18.59;61.25;100535.63;4971131;28;97022;-74
2021/08/27 03:02:36;;;;;;;;;;;;;;;18.34;62.23;100535.63;4969576;28;98480;-74
2021/08/27 03:05:05;;;;;;;;;;;;;;;18.44;61.83;100525.16;4969443;28;98939;-74
2021/08/27 03:07:32;;;;;;;;;;;;;;;18.52;61.65;100528.97;4970587;28;99202;-74
2021/08/27 03:10:01;;;;;;;;;;;;;;;18.64;61.43;100521.94;4969567;28;96822;-73
2021/08/27 03:12:31;;;;;;;;;;;;;;;18.70;61.27;100521.47;4969175;28;96908;-73
2021/08/27 03:14:58;;;;;;;;;;;;;;;18.66;61.40;100520.84;4970530;28;99241;-74
2021/08/27 03:17:27;;;;;;;;;;;;;;;18.56;61.63;100526.97;4971408;28;98787;-74
2021/08/27 03:19:59;;;;;;;;;;;;;;;18.30;62.32;100528.81;4970571;28;96864;-74
2021/08/27 03:22:26;;;;;;;;;;;;;;;18.55;62.25;100527.91;4974048;28;96903;-75
2021/08/27 03:24:55;;;;;;;;;;;;;;;18.58;62.01;100517.00;4962161;28;98936;-74
2021/08/27 03:27:23;;;;;;;;;;;;;;;18.61;62.21;100520.31;4973765;28;98721;-74
2021/08/27 03:29:53;;;;;;;;;;;;;;;18.67;61.82;100516.34;4968934;28;96949;-74
2021/08/27 03:32:20;;;;;;;;;;;;;;;18.60;61.80;100517.75;4976631;28;97161;-74
2021/08/27 03:34:47;;;;;;;;;;;;;;;18.70;61.62;100521.47;4971950;28;98789;-74
2021/08/27 03:37:14;;;;;;;;;;;;;;;18.66;61.44;100518.16;4974819;28;98927;-74
2021/08/27 03:39:42;;;;;;;;;;;;;;;18.46;62.25;100516.03;4972050;28;96915;-74
2021/08/27 03:42:09;;;;;;;;;;;;;;;18.49;61.59;100515.81;4975147;28;96878;-74
2021/08/27 03:44:35;;;;;;;;;;;;;;;18.57;61.55;100520.66;4972576;28;98922;-73
2021/08/27 03:47:03;;;;;;;;;;;;;;;18.56;61.35;100527.84;4973854;28;98789;-73
2021/08/27 03:49:29;;;;;;;;;;;;;;;18.47;61.71;100520.41;4975788;28;96726;-73
2021/08/27 03:51:56;;;;;;;;;;;;;;;18.57;61.27;100516.16;4973098;28;98803;-74
2021/08/27 03:54:24;;;;;;;;;;;;;;;18.56;61.11;100517.13;4974000;28;98933;-73
2021/08/27 03:56:51;;;;;;;;;;;;;;;18.29;61.60;100516.38;4973755;28;98015;-73
2021/08/27 03:59:18;;;;;;;;;;;;;;;18.40;60.78;100508.44;4972861;28;96721;-74
2021/08/27 04:01:45;;;;;;;;;;;;;;;18.35;60.60;100515.94;4973767;28;96794;-73
2021/08/27 04:04:16;;;;;;;;;;;;;;;18.43;60.99;100518.09;4973878;28;99015;-73
2021/08/27 04:06:43;;;;;;;;;;;;;;;18.16;61.78;100515.53;4972485;28;98998;-74
2021/08/27 04:09:09;;;;;;;;;;;;;;;17.95;62.33;100517.03;4974392;28;96885;-74
2021/08/27 04:11:37;;;;;;;;;;;;;;;18.29;61.79;100519.91;4974435;28;96888;-73
2021/08/27 04:14:03;;;;;;;;;;;;;;;18.25;61.45;100517.56;4973850;28;99000;-75
2021/08/27 04:16:29;;;;;;;;;;;;;;;18.46;60.96;100517.84;4973453;28;98815;-74
2021/08/27 04:18:55;;;;;;;;;;;;;;;18.54;60.84;100520.84;4974232;28;98712;-74
2021/08/27 04:21:22;;;;;;;;;;;;;;;18.63;60.60;100521.06;4971633;28;96983;-74
2021/08/27 04:23:48;;;;;;;;;;;;;;;18.83;60.83;100510.72;4973896;28;99238;-74
2021/08/27 04:26:17;;;;;;;;;;;;;;;18.53;61.20;100524.47;4973804;28;99364;-75
2021/08/27 04:28:45;;;;;;;;;;;;;;;18.65;60.45;100519.13;4973008;28;96873;-74
2021/08/27 04:31:12;;;;;;;;;;;;;;;18.60;61.42;100523.97;4972654;28;96912;-74
2021/08/27 04:33:38;;;;;;;;;;;;;;;18.71;60.70;100526.69;4974051;28;99151;-75
2021/08/27 04:36:04;;;;;;;;;;;;;;;18.65;61.51;100523.63;4970256;28;100872;-74
2021/08/27 04:38:31;;;;;;;;;;;;;;;18.75;61.13;100519.31;4973135;28;97161;-73
2021/08/27 04:40:57;;;;;;;;;;;;;;;18.59;61.42;100521.38;4972077;28;96803;-74
2021/08/27 04:43:23;;;;;;;;;;;;;;;18.67;62.00;100524.38;4973405;28;97927;-74
2021/08/27 04:45:51;;;;;;;;;;;;;;;18.82;60.79;100528.63;4971965;28;98940;-74
2021/08/27 04:48:17;;;;;;;;;;;;;;;18.49;62.14;100520.31;4972573;28;96828;-74
2021/08/27 04:50:43;;;;;;;;;;;;;;;18.69;61.47;100520.63;4971816;28;97024;-74
2021/08/27 04:53:10;;;;;;;;;;;;;;;18.68;61.26;100523.41;4969394;28;99003;-73
2021/08/27 04:55:36;;;;;;;;;;;;;;;18.62;61.50;100524.72;4973401;28;99274;-74
2021/08/27 04:58:02;;;;;;;;;;;;;;;18.80;60.82;100527.88;4971732;28;97737;-74
2021/08/27 05:00:29;;;;;;;;;;;;;;;18.69;61.45;100533.16;4973706;28;96817;-74
2021/08/27 05:02:56;;;;;;;;;;;;;;;18.91;60.96;100532.41;4971783;28;101554;-74
2021/08/27 05:05:23;;;;;;;;;;;;;;;18.83;61.17;100526.78;4972241;28;99315;-74
2021/08/27 05:07:49;;;;;;;;;;;;;;;18.83;61.04;100540.19;4974796;28;96603;-74
2021/08/27 05:10:15;;;;;;;;;;;;;;;18.72;61.49;100532.91;4972067;28;96972;-75
2021/08/27 05:12:42;;;;;;;;;;;;;;;18.75;61.38;100537.19;4972589;28;99089;-74
2021/08/27 05:15:09;;;;;;;;;;;;;;;18.79;61.38;100542.22;4972553;28;99491;-73
2021/08/27 05:17:35;;;;;;;;;;;;;;;18.70;61.68;100537.53;4969245;28;96838;-73
2021/08/27 05:20:03;;;;;;;;;;;;;;;18.95;60.92;100537.47;4972518;28;97582;-74
2021/08/27 05:22:29;;;;;;;;;;;;;;;19.07;60.61;100535.69;4968935;28;99314;-75
2021/08/27 05:24:56;;;;;;;;;;;;;;;19.11;60.14;100534.47;4971537;28;99157;-74
2021/08/27 05:27:22;;;;;;;;;;;;;;;18.87;60.92;100528.28;4967712;28;98977;-72
2021/08/27 05:29:48;;;;;;;;;;;;;;;18.96;60.13;100524.94;4966748;28;97975;-73
2021/08/27 05:32:14;;;;;;;;;;;;;;;18.83;60.69;100532.16;4966150;28;99278;-73
2021/08/27 05:34:41;;;;;;;;;;;;;;;18.99;60.38;100536.25;4966285;28;99109;-74
2021/08/27 05:37:09;;;;;;;;;;;;;;;19.13;59.96;100535.25;4973983;28;96932;-75
2021/08/27 05:39:36;;;;;;;;;;;;;;;19.22;60.22;100533.72;4972094;28;97277;-74
2021/08/27 05:42:03;;;;;;;;;;;;;;;19.02;60.00;100532.50;4970717;28;99018;-75
2021/08/27 05:44:29;;;;;;;;;;;;;;;19.12;60.29;100536.19;4970824;28;98781;-75
2021/08/27 05:46:56;;;;;;;;;;;;;;;18.02;64.25;100535.22;4971818;28;96913;-74
2021/08/27 05:49:22;;;;;;;;;;;;;;;18.65;62.85;100540.53;4979628;28;96910;-74
2021/08/27 05:51:49;;;;;;;;;;;;;;;18.54;63.17;100537.75;4967846;28;97867;-72
2021/08/27 05:54:17;;;;;;;;;;;;;;;19.06;61.68;100550.03;4986548;28;97766;-75
2021/08/27 05:56:45;;;;;;;;;;;;;;;19.19;60.58;100550.00;4985594;28;96890;-73
2021/08/27 05:59:11;;;;;;;;;;;;;;;19.67;58.90;100545.50;4985383;28;96774;-76
2021/08/27 06:01:37;;;;;;;;;;;;;;;20.04;57.54;100544.34;4988607;28;96978;-73
2021/08/27 06:04:04;;;;;;;;;;;;;;;19.73;58.10;100542.34;4985063;28;98887;-73
2021/08/27 06:06:30;;;;;;;;;;;;;;;19.53;58.74;100543.84;4980824;28;96932;-74
2021/08/27 06:08:58;;;;;;;;;;;;;;;19.17;60.38;100549.25;4987555;28;96943;-74
2021/08/27 06:11:26;;;;;;;;;;;;;;;19.26;59.71;100557.47;4987764;28;99180;-71
2021/08/27 06:13:53;;;;;;;;;;;;;;;19.29;59.24;100562.59;4982731;28;98848;-73
2021/08/27 06:16:19;;;;;;;;;;;;;;;19.55;58.54;100558.00;4953318;28;97079;-74
2021/08/27 06:18:46;;;;;;;;;;;;;;;19.60;58.65;100565.69;4961180;28;96949;-74
2021/08/27 06:21:12;;;;;;;;;;;;;;;19.32;59.01;100562.38;4972383;28;99149;-74
2021/08/27 06:23:38;;;;;;;;;;;;;;;19.22;59.56;100561.34;4971856;28;99233;-74
2021/08/27 06:26:05;;;;;;;;;;;;;;;19.41;58.83;100564.38;4966554;28;98454;-75
2021/08/27 06:28:32;;;;;;;;;;;;;;;19.42;59.30;100568.75;4964593;28;96877;-75
2021/08/27 06:31:00;;;;;;;;;;;;;;;19.76;58.35;100568.88;4969232;28;99078;-75
2021/08/27 06:33:29;;;;;;;;;;;;;;;20.45;57.01;100564.44;4971169;28;100390;-73
2021/08/27 06:35:55;;;;;;;;;;;;;;;20.79;54.65;100571.50;4964187;28;96936;-73
2021/08/27 06:38:23;;;;;;;;;;;;;;;20.21;55.57;100569.88;4970983;28;97020;-74
2021/08/27 06:40:50;;;;;;;;;;;;;;;19.81;56.28;100570.28;4969384;28;99002;-73
2021/08/27 06:43:16;;;;;;;;;;;;;;;19.76;55.96;100580.47;4965705;28;98120;-74
2021/08/27 06:45:44;;;;;;;;;;;;;;;19.68;56.20;100577.53;4969418;28;96835;-73
2021/08/27 06:48:10;;;;;;;;;;;;;;;19.59;56.27;100582.72;4972845;28;97455;-73
2021/08/27 06:50:38;;;;;;;;;;;;;;;19.42;57.97;100579.47;4977289;28;99197;-74
2021/08/27 06:53:05;;;;;;;;;;;;;;;19.40;57.88;100580.56;4974903;28;100823;-74
2021/08/27 06:55:31;;;;;;;;;;;;;;;19.58;57.92;100579.19;4978839;28;96790;-74
2021/08/27 06:57:59;;;;;;;;;;;;;;;19.46;56.94;100589.03;4975366;28;96894;-74
2021/08/27 07:00:26;;;;;;;;;;;;;;;19.01;57.85;100576.31;4976401;28;99059;-73
2021/08/27 07:02:53;;;;;;;;;;;;;;;19.21;57.10;100585.56;4978634;28;99178;-73
2021/08/27 07:05:20;;;;;;;;;;;;;;;19.63;55.46;100585.06;4972033;28;96871;-74
2021/08/27 07:07:46;;;;;;;;;;;;;;;19.38;57.13;100587.84;4971974;28;97909;-74
2021/08/27 07:10:14;;;;;;;;;;;;;;;19.50;57.44;100586.94;4972612;28;98813;-75
2021/08/27 07:12:40;;;;;;;;;;;;;;;20.09;55.80;100592.25;4975244;28;98943;-73
2021/08/27 07:15:09;;;;;;;;;;;;;;;20.09;55.74;100589.59;4974464;28;96839;-75
2021/08/27 07:17:36;;;;;;;;;;;;;;;19.98;55.24;100595.78;4970260;28;97136;-75
2021/08/27 07:20:04;;;;;;;;;;;;;;;20.06;54.99;100598.75;4977598;28;98982;-74
2021/08/27 07:22:30;;;;;;;;;;;;;;;19.85;55.12;100597.69;4975100;28;99142;-75
2021/08/27 07:24:57;;;;;;;;;;;;;;;20.09;54.34;100597.63;4977263;28;96765;-74
2021/08/27 07:27:23;;;;;;;;;;;;;;;19.99;55.48;100600.19;4976676;28;97591;-75
2021/08/27 07:29:49;;;;;;;;;;;;;;;20.02;54.18;100594.56;4975512;28;98812;-75
2021/08/27 07:32:16;;;;;;;;;;;;;;;19.26;57.13;100599.47;4975247;28;98922;-75
2021/08/27 07:34:42;;;;;;;;;;;;;;;19.18;56.06;100596.50;4975143;28;99932;-74
2021/08/27 07:37:10;;;;;;;;;;;;;;;19.80;54.03;100591.84;4969438;28;98382;-74
2021/08/27 07:39:37;;;;;;;;;;;;;;;20.12;53.80;100597.41;4969273;28;99239;-74
2021/08/27 07:42:04;;;;;;;;;;;;;;;19.93;54.73;100595.28;4970734;28;99266;-74
2021/08/27 07:44:30;;;;;;;;;;;;;;;19.72;54.95;100602.28;4976548;28;96884;-74
2021/08/27 07:46:57;;;;;;;;;;;;;;;21.03;51.97;100593.66;4976972;28;96833;-74
2021/08/27 07:49:23;;;;;;;;;;;;;;;21.80;49.45;100590.88;4975375;28;99141;-74
2021/08/27 07:51:51;;;;;;;;;;;;;;;21.65;49.92;100601.13;4971096;28;99234;-73
2021/08/27 07:54:18;;;;;;;;;;;;;;;21.20;50.56;100600.38;4970338;28;97614;-74
2021/08/27 07:56:45;;;;;;;;;;;;;;;20.98;50.48;100595.88;4969083;28;98864;-75
2021/08/27 07:59:12;;;;;;;;;;;;;;;20.88;51.18;100599.41;4975350;28;99030;-74
2021/08/27 08:01:38;;;;;;;;;;;;;;;20.28;53.02;100601.44;4971882;28;98781;-75
2021/08/27 08:04:05;;;;;;;;;;;;;;;20.69;51.64;100597.38;4958849;28;98286;-75
2021/08/27 08:06:39;;;;;;;;;;;;;;;20.72;52.65;100598.97;4967594;28;97188;-75
2021/08/27 08:09:06;;;;;;;;;;;;;;;20.86;52.13;100596.03;4963025;28;99626;-75
2021/08/27 08:11:34;;;;;;;;;;;;;;;20.00;53.81;100611.75;4971603;28;98967;-74
2021/08/27 08:14:00;;;;;;;;;;;;;;;20.66;52.52;100603.00;4970270;28;96854;-74
2021/08/27 08:16:26;;;;;;;;;;;;;;;20.50;51.34;100608.72;4969465;28;98729;-74
2021/08/27 08:18:53;;;;;;;;;;;;;;;20.57;52.63;100611.75;4971206;28;98976;-73
2021/08/27 08:21:22;;;;;;;;;;;;;;;21.12;52.16;100607.34;4969731;28;98905;-75
2021/08/27 08:23:49;;;;;;;;;;;;;;;20.84;50.57;100620.31;4970686;28;97161;-74
2021/08/27 08:26:15;;;;;;;;;;;;;;;20.78;51.69;100614.56;4966268;28;96986;-73
2021/08/27 08:28:43;;;;;;;;;;;;;;;20.82;51.00;100611.50;4969645;28;98886;-74
2021/08/27 08:31:10;;;;;;;;;;;;;;;20.82;50.59;100611.50;4969860;28;99122;-74
2021/08/27 08:33:37;;;;;;;;;;;;;;;21.68;48.73;100614.28;4968809;28;97023;-73
2021/08/27 08:36:04;;;;;;;;;;;;;;;22.51;46.00;100617.00;4974682;28;96914;-74
2021/08/27 08:38:32;;;;;;;;;;;;;;;22.99;45.14;100619.09;4973392;28;98959;-74
2021/08/27 08:40:59;;;;;;;;;;;;;;;23.20;44.65;100622.56;4974852;28;98870;-75
2021/08/27 08:43:25;;;;;;;;;;;;;;;22.59;44.16;100617.19;4974908;28;96769;-74
2021/08/27 08:45:53;;;;;;;;;;;;;;;22.66;43.87;100617.50;4975161;28;96993;-74
2021/08/27 08:48:20;;;;;;;;;;;;;;;21.61;45.78;100610.41;4973644;28;99324;-74
2021/08/27 08:50:46;;;;;;;;;;;;;;;22.57;44.29;100616.50;4972633;28;98943;-74
2021/08/27 08:53:13;;;;;;;;;;;;;;;22.35;46.02;100621.19;4975570;28;97019;-75
2021/08/27 08:55:40;;;;;;;;;;;;;;;21.19;48.59;100625.56;4975238;28;96821;-73
2021/08/27 08:58:06;;;;;;;;;;;;;;;21.90;45.64;100625.94;4974729;28;98916;-74
2021/08/27 09:00:32;;;;;;;;;;;;;;;22.89;43.87;100627.16;4974050;28;98165;-75
2021/08/27 09:03:01;;;;;;;;;;;;;;;23.10;42.98;100626.25;4973678;28;97038;-75
2021/08/27 09:05:27;;;;;;;;;;;;;;;22.42;43.59;100633.97;4975589;28;97008;-74
2021/08/27 09:07:54;;;;;;;;;;;;;;;21.98;42.49;100634.25;4975651;28;99400;-74
2021/08/27 09:10:21;;;;;;;;;;;;;;;22.81;40.91;100634.19;4974014;28;99290;-74
2021/08/27 09:12:48;;;;;;;;;;;;;;;21.05;45.36;100637.41;4975025;28;96816;-75
2021/08/27 09:15:15;;;;;;;;;;;;;;;21.71;44.66;100642.75;4969686;28;96871;-74
2021/08/27 09:17:42;;;;;;;;;;;;;;;21.23;45.80;100635.06;4973217;28;99038;-76
2021/08/27 09:20:12;;;;;;;;;;;;;;;21.08;47.08;100641.66;4973821;28;98836;-75
2021/08/27 09:22:47;;;;;;;;;;;;;;;22.62;44.38;100640.31;4973611;28;97083;-75
2021/08/27 09:25:13;;;;;;;;;;;;;;;22.90;42.65;100638.78;4971219;28;96964;-75
2021/08/27 09:27:54;;;;;;;;;;;;;;;21.35;45.04;100646.66;4972888;28;99373;-74
2021/08/27 09:30:21;;;;;;;;;;;;;;;21.92;43.06;100642.81;4964745;28;98814;-75
2021/08/27 09:32:47;;;;;;;;;;;;;;;21.95;43.49;100635.31;4970999;28;96886;-73
2021/08/27 09:35:16;;;;;;;;;;;;;;;22.56;41.66;100640.88;4968709;28;98444;-73
2021/08/27 09:37:43;;;;;;;;;;;;;;;22.61;41.42;100638.63;4966962;28;99201;-74
2021/08/27 09:40:11;;;;;;;;;;;;;;;22.13;41.65;100633.78;4966791;28;98815;-75
2021/08/27 09:42:38;;;;;;;;;;;;;;;21.80;42.71;100637.44;4965987;28;99388;-74
2021/08/27 09:45:05;;;;;;;;;;;;;;;22.26;42.46;100639.81;4966786;28;97141;-73
2021/08/27 09:47:31;;;;;;;;;;;;;;;22.74;41.11;100639.28;4965772;28;99371;-74
2021/08/27 09:50:19;;;;;;;;;;;;;;;22.69;41.56;100643.34;4967474;28;99100;-72
2021/08/27 09:52:51;;;;;;;;;;;;;;;22.58;40.15;100644.25;4966886;28;97746;-73
2021/08/27 09:55:17;;;;;;;;;;;;;;;22.51;41.54;100652.00;4960162;28;97967;-73
2021/08/27 09:57:45;;;;;;;;;;;;;;;22.53;41.62;100647.34;4963137;28;99572;-73
2021/08/27 10:00:19;;;;;;;;;;;;;;;22.90;41.47;100652.25;4966892;28;99877;-73
2021/08/27 10:02:47;;;;;;;;;;;;;;;23.20;40.39;100656.75;4966070;28;97316;-74
2021/08/27 10:05:16;;;;;;;;;;;;;;;22.01;43.31;100660.88;4965170;28;97189;-74
2021/08/27 10:07:42;;;;;;;;;;;;;;;22.07;43.23;100653.13;4967201;28;99079;-75
2021/08/27 10:10:12;;;;;;;;;;;;;;;21.00;45.43;100660.25;4971608;28;99193;-75
2021/08/27 10:12:39;;;;;;;;;;;;;;;21.17;45.03;100665.13;4971439;28;97069;-75
2021/08/27 10:15:07;;;;;;;;;;;;;;;20.72;45.12;100671.44;4973281;28;97028;-74
2021/08/27 10:17:35;;;;;;;;;;;;;;;21.50;44.20;100669.59;4968809;28;99094;-73
2021/08/27 10:20:03;;;;;;;;;;;;;;;21.22;43.70;100667.44;4966063;28;100356;-75
2021/08/27 10:22:29;;;;;;;;;;;;;;;20.99;43.39;100675.50;4964095;28;96897;-73
2021/08/27 10:24:56;;;;;;;;;;;;;;;21.15;43.96;100669.72;4964839;28;97215;-72
2021/08/27 10:27:24;;;;;;;;;;;;;;;21.43;43.85;100671.94;4968183;28;98918;-73
2021/08/27 10:29:52;;;;;;;;;;;;;;;21.84;43.13;100668.50;4964970;28;99149;-74
2021/08/27 10:32:37;;;;;;;;;;;;;;;22.02;42.87;100665.28;4967619;28;98179;-73
2021/08/27 10:35:04;;;;;;;;;;;;;;;22.30;42.86;100669.19;4965497;28;97013;-74
2021/08/27 10:37:43;;;;;;;;;;;;;;;22.57;42.51;100664.97;4967893;28;98953;-74
2021/08/27 10:40:24;;;;;;;;;;;;;;;22.56;42.88;100674.03;4965763;28;99254;-74
2021/08/27 10:42:52;;;;;;;;;;;;;;;22.60;42.86;100671.91;4964312;28;98959;-74
2021/08/27 10:45:33;;;;;;;;;;;;;;;22.26;43.98;100679.34;4967283;28;98507;-74
2021/08/27 10:48:10;;;;;;;;;;;;;;;22.91;43.46;100678.19;4969909;28;98965;-74
2021/08/27 10:50:37;;;;;;;;;;;;;;;22.68;42.91;100688.25;4968019;28;99302;-74
2021/08/27 10:53:22;;;;;;;;;;;;;;;22.81;43.14;100683.53;4966358;28;96883;-74
2021/08/27 10:55:49;;;;;;;;;;;;;;;22.76;42.28;100682.25;4972253;28;96999;-72
2021/08/27 10:58:18;;;;;;;;;;;;;;;23.41;41.38;100677.25;4968187;28;100565;-75
2021/08/27 11:00:47;;;;;;;;;;;;;;;23.71;39.93;100686.28;4966546;28;98845;-73
2021/08/27 11:03:15;;;;;;;;;;;;;;;23.86;39.28;100679.47;4965384;28;97824;-74
2021/08/27 11:05:42;;;;;;;;;;;;;;;23.79;38.77;100683.72;4965854;28;97116;-74
2021/08/27 11:08:10;;;;;;;;;;;;;;;23.94;39.17;100689.56;4969241;28;99104;-74
2021/08/27 11:10:37;;;;;;;;;;;;;;;23.55;39.98;100694.91;4976153;28;98883;-73
2021/08/27 11:13:07;;;;;;;;;;;;;;;22.87;41.21;100691.09;4972579;28;96873;-72
2021/08/27 11:15:36;;;;;;;;;;;;;;;23.40;40.21;100685.47;4977069;28;96852;-74
2021/08/27 11:18:06;;;;;;;;;;;;;;;23.19;40.82;100692.78;4986475;28;99475;-72
2021/08/27 11:20:33;;;;;;;;;;;;;;;23.38;40.17;100688.31;4987805;28;98158;-74
2021/08/27 11:22:59;;;;;;;;;;;;;;;22.55;41.31;100693.84;4987476;28;96644;-72
2021/08/27 11:25:26;;;;;;;;;;;;;;;22.76;41.35;100696.56;4988719;28;96800;-74
2021/08/27 11:28:09;;;;;;;;;;;;;;;22.78;41.50;100688.34;4990400;28;99415;-74
2021/08/27 11:30:37;;;;;;;;;;;;;;;24.08;39.92;100697.25;4987363;28;96803;-72
2021/08/27 11:33:04;;;;;;;;;;;;;;;23.74;40.68;100691.41;4989887;28;96727;-75
2021/08/27 11:35:30;;;;;;;;;;;;;;;23.80;39.23;100693.53;4990912;28;96491;-73
2021/08/27 11:37:58;;;;;;;;;;;;;;;23.89;38.64;100690.00;4989023;28;97892;-73
2021/08/27 11:40:43;;;;;;;;;;;;;;;23.16;39.90;100698.47;4990697;28;99161;-72
2021/08/27 11:43:09;;;;;;;;;;;;;;;23.76;37.77;100687.53;4993254;28;97015;-74
2021/08/27 11:45:37;;;;;;;;;;;;;;;23.50;38.93;100689.06;4993212;28;96863;-72
2021/08/27 11:48:07;;;;;;;;;;;;;;;24.81;36.79;100688.47;4983913;28;98002;-74
2021/08/27 11:50:36;;;;;;;;;;;;;;;24.13;37.45;100690.44;4975487;28;98892;-74
2021/08/27 11:53:03;;;;;;;;;;;;;;;23.24;39.46;100694.06;4976242;28;96940;-74
2021/08/27 11:55:30;;;;;;;;;;;;;;;22.76;40.08;100693.88;4976551;28;97363;-75
2021/08/27 11:57:57;;;;;;;;;;;;;;;22.89;39.71;100685.56;4975501;28;99633;-74
2021/08/27 12:00:24;;;;;;;;;;;;;;;22.53;40.92;100687.75;4976243;28;98832;-74
2021/08/27 12:02:53;;;;;;;;;;;;;;;22.75;41.27;100691.31;4976600;28;96979;-75
2021/08/27 12:05:19;;;;;;;;;;;;;;;23.10;41.08;100689.06;4976259;28;96936;-73
2021/08/27 12:07:49;;;;;;;;;;;;;;;23.25;40.28;100690.38;4975166;28;101470;-74
2021/08/27 12:10:16;;;;;;;;;;;;;;;22.40;41.69;100695.16;4975536;28;98293;-74
2021/08/27 12:12:43;;;;;;;;;;;;;;;22.12;43.28;100702.03;4975315;28;96882;-73
2021/08/27 12:15:10;;;;;;;;;;;;;;;22.41;42.83;100690.63;4968937;28;96812;-75
2021/08/27 12:17:37;;;;;;;;;;;;;;;22.42;41.63;100693.22;4975761;28;99332;-74
2021/08/27 12:20:07;;;;;;;;;;;;;;;22.75;40.96;100697.56;4976676;28;98878;-75
2021/08/27 12:22:42;;;;;;;;;;;;;;;23.16;40.25;100695.75;4974606;28;96834;-73
2021/08/27 12:25:09;;;;;;;;;;;;;;;23.55;39.43;100696.75;4970173;28;97138;-74
2021/08/27 12:27:46;;;;;;;;;;;;;;;24.35;38.38;100699.25;4974525;28;99207;-73
2021/08/27 12:30:13;;;;;;;;;;;;;;;24.29;37.44;100708.75;4975786;28;98108;-74
2021/08/27 12:32:39;;;;;;;;;;;;;;;;;;4976292;28;96664;-74
2021/08/27 12:35:09;;;;;;;;;;;;;;;23.53;40.37;100717.63;4976883;28;97163;-74
2021/08/27 12:37:35;;;;;;;;;;;;;;;21.63;48.89;100729.44;4975011;28;98874;-74
2021/08/27 12:40:05;;;;;;;;;;;;;;;20.78;50.38;100732.72;4975901;28;99091;-75